sensor_id;sensor_type;location;lat;lon;timestamp;P1;durP1;ratioP1;P2;durP2;ratioP2
26042;SDS011;13818;52.156;5.382;2023-02-04T00:01:15;19.35;;;2.45;;
26042;SDS011;13818;52.156;5.382;2023-02-04T00:03:42;15.18;;;1.70;;
26042;SDS011;13818;52.156;5.382;2023-02-04T00:06:08;16.05;;;2.40;;
26042;SDS011;13818;52.156;5.382;2023-02-04T00:08:35;13.65;;;1.92;;
26042;SDS011;13818;52.156;5.382;2023-02-04T00:11:02;11.00;;;1.75;;
26042;SDS011;13818;52.156;5.382;2023-02-04T00:13:29;18.48;;;2.58;;
26042;SDS011;13818;52.156;5.382;2023-02-04T00:15:56;16.33;;;2.45;;
26042;SDS011;13818;52.156;5.382;2023-02-04T00:18:23;18.92;;;2.67;;
26042;SDS011;13818;52.156;5.382;2023-02-04T00:20:49;13.50;;;1.95;;
26042;SDS011;13818;52.156;5.382;2023-02-04T00:23:16;14.57;;;2.78;;
26042;SDS011;13818;52.156;5.382;2023-02-04T00:25:42;15.73;;;1.92;;
26042;SDS011;13818;52.156;5.382;2023-02-04T00:28:08;14.02;;;1.88;;
26042;SDS011;13818;52.156;5.382;2023-02-04T00:30:35;16.58;;;1.92;;
26042;SDS011;13818;52.156;5.382;2023-02-04T00:33:03;16.10;;;2.83;;
26042;SDS011;13818;52.156;5.382;2023-02-04T00:35:29;21.85;;;2.83;;
26042;SDS011;13818;52.156;5.382;2023-02-04T00:37:55;25.08;;;2.55;;
26042;SDS011;13818;52.156;5.382;2023-02-04T00:40:22;12.02;;;1.95;;
26042;SDS011;13818;52.156;5.382;2023-02-04T00:42:48;22.45;;;2.15;;
26042;SDS011;13818;52.156;5.382;2023-02-04T00:45:15;14.65;;;2.42;;
26042;SDS011;13818;52.156;5.382;2023-02-04T00:47:41;25.65;;;3.85;;
26042;SDS011;13818;52.156;5.382;2023-02-04T00:50:09;16.40;;;2.03;;
26042;SDS011;13818;52.156;5.382;2023-02-04T00:52:36;17.85;;;2.70;;
26042;SDS011;13818;52.156;5.382;2023-02-04T00:55:02;17.77;;;2.60;;
26042;SDS011;13818;52.156;5.382;2023-02-04T00:57:31;16.63;;;2.77;;
26042;SDS011;13818;52.156;5.382;2023-02-04T00:59:57;14.93;;;2.28;;
26042;SDS011;13818;52.156;5.382;2023-02-04T01:02:23;18.40;;;2.83;;
26042;SDS011;13818;52.156;5.382;2023-02-04T01:04:50;15.95;;;3.08;;
26042;SDS011;13818;52.156;5.382;2023-02-04T01:07:18;18.58;;;2.47;;
26042;SDS011;13818;52.156;5.382;2023-02-04T01:09:44;13.35;;;2.45;;
26042;SDS011;13818;52.156;5.382;2023-02-04T01:12:11;14.77;;;2.38;;
26042;SDS011;13818;52.156;5.382;2023-02-04T01:14:37;17.25;;;2.85;;
26042;SDS011;13818;52.156;5.382;2023-02-04T01:17:04;14.90;;;2.05;;
26042;SDS011;13818;52.156;5.382;2023-02-04T01:19:30;12.55;;;1.80;;
26042;SDS011;13818;52.156;5.382;2023-02-04T01:21:57;21.15;;;3.00;;
26042;SDS011;13818;52.156;5.382;2023-02-04T01:24:24;21.55;;;2.70;;
26042;SDS011;13818;52.156;5.382;2023-02-04T01:26:51;24.00;;;2.88;;
26042;SDS011;13818;52.156;5.382;2023-02-04T01:29:17;15.60;;;2.67;;
26042;SDS011;13818;52.156;5.382;2023-02-04T01:31:44;18.73;;;2.55;;
26042;SDS011;13818;52.156;5.382;2023-02-04T01:34:10;19.25;;;2.40;;
26042;SDS011;13818;52.156;5.382;2023-02-04T01:36:36;18.05;;;2.63;;
26042;SDS011;13818;52.156;5.382;2023-02-04T01:39:03;16.17;;;2.80;;
26042;SDS011;13818;52.156;5.382;2023-02-04T01:41:31;22.40;;;3.20;;
26042;SDS011;13818;52.156;5.382;2023-02-04T01:43:57;15.43;;;2.30;;
26042;SDS011;13818;52.156;5.382;2023-02-04T01:46:24;21.33;;;2.92;;
26042;SDS011;13818;52.156;5.382;2023-02-04T01:48:51;10.63;;;2.10;;
26042;SDS011;13818;52.156;5.382;2023-02-04T01:51:18;16.23;;;2.05;;
26042;SDS011;13818;52.156;5.382;2023-02-04T01:53:52;21.83;;;3.03;;
26042;SDS011;13818;52.156;5.382;2023-02-04T01:56:19;23.40;;;2.78;;
26042;SDS011;13818;52.156;5.382;2023-02-04T01:58:49;29.20;;;2.27;;
26042;SDS011;13818;52.156;5.382;2023-02-04T02:01:31;18.90;;;2.95;;
26042;SDS011;13818;52.156;5.382;2023-02-04T02:04:00;9.18;;;1.65;;
26042;SDS011;13818;52.156;5.382;2023-02-04T02:06:27;18.75;;;2.30;;
26042;SDS011;13818;52.156;5.382;2023-02-04T02:08:54;20.20;;;2.95;;
26042;SDS011;13818;52.156;5.382;2023-02-04T02:11:22;16.27;;;3.28;;
26042;SDS011;13818;52.156;5.382;2023-02-04T02:13:50;22.75;;;3.38;;
26042;SDS011;13818;52.156;5.382;2023-02-04T02:16:16;20.50;;;2.50;;
26042;SDS011;13818;52.156;5.382;2023-02-04T02:18:43;26.23;;;3.90;;
26042;SDS011;13818;52.156;5.382;2023-02-04T02:21:10;21.42;;;2.53;;
26042;SDS011;13818;52.156;5.382;2023-02-04T02:23:45;19.48;;;2.53;;
26042;SDS011;13818;52.156;5.382;2023-02-04T02:26:12;18.80;;;2.53;;
26042;SDS011;13818;52.156;5.382;2023-02-04T02:28:41;22.35;;;3.13;;
26042;SDS011;13818;52.156;5.382;2023-02-04T02:31:08;18.67;;;2.22;;
26042;SDS011;13818;52.156;5.382;2023-02-04T02:33:35;24.10;;;2.70;;
26042;SDS011;13818;52.156;5.382;2023-02-04T02:36:02;19.20;;;2.58;;
26042;SDS011;13818;52.156;5.382;2023-02-04T02:38:30;17.88;;;2.40;;
26042;SDS011;13818;52.156;5.382;2023-02-04T02:40:58;17.15;;;3.00;;
26042;SDS011;13818;52.156;5.382;2023-02-04T02:43:25;21.08;;;3.08;;
26042;SDS011;13818;52.156;5.382;2023-02-04T02:45:53;24.17;;;2.60;;
26042;SDS011;13818;52.156;5.382;2023-02-04T02:48:21;26.10;;;2.80;;
26042;SDS011;13818;52.156;5.382;2023-02-04T02:50:48;19.73;;;2.85;;
26042;SDS011;13818;52.156;5.382;2023-02-04T02:53:16;23.20;;;2.78;;
26042;SDS011;13818;52.156;5.382;2023-02-04T02:58:13;21.75;;;2.72;;
26042;SDS011;13818;52.156;5.382;2023-02-04T03:00:43;25.20;;;3.08;;
26042;SDS011;13818;52.156;5.382;2023-02-04T03:03:10;21.90;;;2.78;;
26042;SDS011;13818;52.156;5.382;2023-02-04T03:05:42;28.42;;;3.47;;
26042;SDS011;13818;52.156;5.382;2023-02-04T03:08:11;27.02;;;2.63;;
26042;SDS011;13818;52.156;5.382;2023-02-04T03:10:40;20.73;;;2.80;;
26042;SDS011;13818;52.156;5.382;2023-02-04T03:13:07;23.95;;;2.78;;
26042;SDS011;13818;52.156;5.382;2023-02-04T03:15:36;21.10;;;3.60;;
26042;SDS011;13818;52.156;5.382;2023-02-04T03:18:03;17.13;;;3.27;;
26042;SDS011;13818;52.156;5.382;2023-02-04T03:20:30;21.58;;;2.28;;
26042;SDS011;13818;52.156;5.382;2023-02-04T03:22:57;23.13;;;2.90;;
26042;SDS011;13818;52.156;5.382;2023-02-04T03:25:24;23.23;;;3.03;;
26042;SDS011;13818;52.156;5.382;2023-02-04T03:27:52;24.73;;;3.05;;
26042;SDS011;13818;52.156;5.382;2023-02-04T03:30:19;14.90;;;2.85;;
26042;SDS011;13818;52.156;5.382;2023-02-04T03:32:47;22.40;;;2.47;;
26042;SDS011;13818;52.156;5.382;2023-02-04T03:35:14;24.17;;;3.38;;
26042;SDS011;13818;52.156;5.382;2023-02-04T03:37:41;19.15;;;3.60;;
26042;SDS011;13818;52.156;5.382;2023-02-04T03:40:08;13.65;;;2.42;;
26042;SDS011;13818;52.156;5.382;2023-02-04T03:42:35;27.27;;;3.85;;
26042;SDS011;13818;52.156;5.382;2023-02-04T03:45:02;16.15;;;2.65;;
26042;SDS011;13818;52.156;5.382;2023-02-04T03:47:28;25.70;;;3.67;;
26042;SDS011;13818;52.156;5.382;2023-02-04T03:49:56;31.30;;;4.53;;
26042;SDS011;13818;52.156;5.382;2023-02-04T03:52:23;20.00;;;3.60;;
26042;SDS011;13818;52.156;5.382;2023-02-04T03:54:50;19.10;;;3.60;;
26042;SDS011;13818;52.156;5.382;2023-02-04T03:57:16;33.85;;;3.45;;
26042;SDS011;13818;52.156;5.382;2023-02-04T03:59:43;22.33;;;3.47;;
26042;SDS011;13818;52.156;5.382;2023-02-04T04:02:09;33.45;;;4.00;;
26042;SDS011;13818;52.156;5.382;2023-02-04T04:04:36;21.80;;;2.67;;
26042;SDS011;13818;52.156;5.382;2023-02-04T04:07:03;15.25;;;2.60;;
26042;SDS011;13818;52.156;5.382;2023-02-04T04:09:31;17.90;;;3.35;;
26042;SDS011;13818;52.156;5.382;2023-02-04T04:11:57;18.35;;;3.17;;
26042;SDS011;13818;52.156;5.382;2023-02-04T04:14:23;20.60;;;2.92;;
26042;SDS011;13818;52.156;5.382;2023-02-04T04:16:50;18.08;;;2.90;;
26042;SDS011;13818;52.156;5.382;2023-02-04T04:19:16;19.50;;;2.67;;
26042;SDS011;13818;52.156;5.382;2023-02-04T04:21:43;13.55;;;2.40;;
26042;SDS011;13818;52.156;5.382;2023-02-04T04:24:10;22.05;;;3.35;;
26042;SDS011;13818;52.156;5.382;2023-02-04T04:26:37;26.20;;;2.92;;
26042;SDS011;13818;52.156;5.382;2023-02-04T04:29:03;20.08;;;3.03;;
26042;SDS011;13818;52.156;5.382;2023-02-04T04:31:30;22.88;;;3.03;;
26042;SDS011;13818;52.156;5.382;2023-02-04T04:33:56;15.20;;;2.60;;
26042;SDS011;13818;52.156;5.382;2023-02-04T04:36:22;22.30;;;3.33;;
26042;SDS011;13818;52.156;5.382;2023-02-04T04:38:49;30.27;;;3.72;;
26042;SDS011;13818;52.156;5.382;2023-02-04T04:41:17;22.98;;;3.35;;
26042;SDS011;13818;52.156;5.382;2023-02-04T04:43:43;25.35;;;4.20;;
26042;SDS011;13818;52.156;5.382;2023-02-04T04:46:09;17.60;;;3.45;;
26042;SDS011;13818;52.156;5.382;2023-02-04T04:48:36;21.30;;;3.85;;
26042;SDS011;13818;52.156;5.382;2023-02-04T04:51:03;16.10;;;3.25;;
26042;SDS011;13818;52.156;5.382;2023-02-04T04:53:29;21.80;;;3.03;;
26042;SDS011;13818;52.156;5.382;2023-02-04T04:55:56;26.45;;;3.22;;
26042;SDS011;13818;52.156;5.382;2023-02-04T04:58:23;22.05;;;2.92;;
26042;SDS011;13818;52.156;5.382;2023-02-04T05:00:50;21.67;;;3.50;;
26042;SDS011;13818;52.156;5.382;2023-02-04T05:03:17;20.38;;;3.15;;
26042;SDS011;13818;52.156;5.382;2023-02-04T05:05:43;20.48;;;2.88;;
26042;SDS011;13818;52.156;5.382;2023-02-04T05:08:10;24.83;;;2.90;;
26042;SDS011;13818;52.156;5.382;2023-02-04T05:10:41;22.35;;;3.60;;
26042;SDS011;13818;52.156;5.382;2023-02-04T05:13:08;18.50;;;2.47;;
26042;SDS011;13818;52.156;5.382;2023-02-04T05:15:36;23.00;;;4.03;;
26042;SDS011;13818;52.156;5.382;2023-02-04T05:18:02;22.80;;;3.38;;
26042;SDS011;13818;52.156;5.382;2023-02-04T05:20:29;24.70;;;4.20;;
26042;SDS011;13818;52.156;5.382;2023-02-04T05:22:56;24.35;;;3.88;;
26042;SDS011;13818;52.156;5.382;2023-02-04T05:25:25;21.25;;;2.63;;
26042;SDS011;13818;52.156;5.382;2023-02-04T05:27:51;23.35;;;3.38;;
26042;SDS011;13818;52.156;5.382;2023-02-04T05:30:18;17.02;;;3.75;;
26042;SDS011;13818;52.156;5.382;2023-02-04T05:32:46;26.85;;;2.95;;
26042;SDS011;13818;52.156;5.382;2023-02-04T05:35:12;32.33;;;3.60;;
26042;SDS011;13818;52.156;5.382;2023-02-04T05:37:39;31.48;;;3.67;;
26042;SDS011;13818;52.156;5.382;2023-02-04T05:40:07;21.80;;;3.20;;
26042;SDS011;13818;52.156;5.382;2023-02-04T05:42:34;33.40;;;3.87;;
26042;SDS011;13818;52.156;5.382;2023-02-04T05:45:00;23.98;;;3.65;;
26042;SDS011;13818;52.156;5.382;2023-02-04T05:47:27;20.58;;;3.75;;
26042;SDS011;13818;52.156;5.382;2023-02-04T05:49:54;21.70;;;3.67;;
26042;SDS011;13818;52.156;5.382;2023-02-04T05:52:21;25.27;;;3.80;;
26042;SDS011;13818;52.156;5.382;2023-02-04T05:54:47;19.35;;;3.28;;
26042;SDS011;13818;52.156;5.382;2023-02-04T05:57:14;20.13;;;4.00;;
26042;SDS011;13818;52.156;5.382;2023-02-04T05:59:40;20.50;;;3.13;;
26042;SDS011;13818;52.156;5.382;2023-02-04T06:02:07;21.58;;;3.15;;
26042;SDS011;13818;52.156;5.382;2023-02-04T06:04:33;25.38;;;3.95;;
26042;SDS011;13818;52.156;5.382;2023-02-04T06:07:01;31.80;;;3.75;;
26042;SDS011;13818;52.156;5.382;2023-02-04T06:09:27;19.92;;;3.00;;
26042;SDS011;13818;52.156;5.382;2023-02-04T06:11:54;22.02;;;3.65;;
26042;SDS011;13818;52.156;5.382;2023-02-04T06:14:21;17.10;;;3.47;;
26042;SDS011;13818;52.156;5.382;2023-02-04T06:16:47;23.83;;;3.65;;
26042;SDS011;13818;52.156;5.382;2023-02-04T06:19:14;21.58;;;3.25;;
26042;SDS011;13818;52.156;5.382;2023-02-04T06:21:40;20.80;;;3.20;;
26042;SDS011;13818;52.156;5.382;2023-02-04T06:24:08;29.48;;;4.07;;
26042;SDS011;13818;52.156;5.382;2023-02-04T06:26:35;23.65;;;4.47;;
26042;SDS011;13818;52.156;5.382;2023-02-04T06:29:01;14.73;;;2.90;;
26042;SDS011;13818;52.156;5.382;2023-02-04T06:31:28;25.50;;;3.78;;
26042;SDS011;13818;52.156;5.382;2023-02-04T06:33:54;22.08;;;3.08;;
26042;SDS011;13818;52.156;5.382;2023-02-04T06:36:20;19.90;;;3.50;;
26042;SDS011;13818;52.156;5.382;2023-02-04T06:38:47;16.17;;;3.40;;
26042;SDS011;13818;52.156;5.382;2023-02-04T06:41:15;16.95;;;2.55;;
26042;SDS011;13818;52.156;5.382;2023-02-04T06:43:41;20.52;;;2.97;;
26042;SDS011;13818;52.156;5.382;2023-02-04T06:46:07;21.38;;;4.15;;
26042;SDS011;13818;52.156;5.382;2023-02-04T06:48:34;15.18;;;3.53;;
26042;SDS011;13818;52.156;5.382;2023-02-04T06:51:00;24.13;;;3.35;;
26042;SDS011;13818;52.156;5.382;2023-02-04T06:53:27;16.55;;;2.95;;
26042;SDS011;13818;52.156;5.382;2023-02-04T06:55:53;17.95;;;2.95;;
26042;SDS011;13818;52.156;5.382;2023-02-04T06:58:21;31.98;;;4.15;;
26042;SDS011;13818;52.156;5.382;2023-02-04T07:00:47;25.58;;;3.60;;
26042;SDS011;13818;52.156;5.382;2023-02-04T07:03:14;29.00;;;3.47;;
26042;SDS011;13818;52.156;5.382;2023-02-04T07:05:41;28.08;;;4.28;;
26042;SDS011;13818;52.156;5.382;2023-02-04T07:08:07;24.33;;;3.80;;
26042;SDS011;13818;52.156;5.382;2023-02-04T07:10:33;22.17;;;3.72;;
26042;SDS011;13818;52.156;5.382;2023-02-04T07:13:00;25.17;;;4.18;;
26042;SDS011;13818;52.156;5.382;2023-02-04T07:15:28;21.85;;;3.63;;
26042;SDS011;13818;52.156;5.382;2023-02-04T07:17:55;21.52;;;2.85;;
26042;SDS011;13818;52.156;5.382;2023-02-04T07:20:21;15.88;;;2.97;;
26042;SDS011;13818;52.156;5.382;2023-02-04T07:22:48;15.20;;;3.65;;
26042;SDS011;13818;52.156;5.382;2023-02-04T07:25:15;25.42;;;4.43;;
26042;SDS011;13818;52.156;5.382;2023-02-04T07:27:41;34.80;;;3.85;;
26042;SDS011;13818;52.156;5.382;2023-02-04T07:30:09;22.63;;;4.50;;
26042;SDS011;13818;52.156;5.382;2023-02-04T07:32:37;21.65;;;4.43;;
26042;SDS011;13818;52.156;5.382;2023-02-04T07:35:04;24.33;;;4.78;;
26042;SDS011;13818;52.156;5.382;2023-02-04T07:37:31;20.88;;;3.55;;
26042;SDS011;13818;52.156;5.382;2023-02-04T07:39:57;26.98;;;3.70;;
26042;SDS011;13818;52.156;5.382;2023-02-04T07:42:24;25.08;;;4.53;;
26042;SDS011;13818;52.156;5.382;2023-02-04T07:44:50;21.55;;;4.10;;
26042;SDS011;13818;52.156;5.382;2023-02-04T07:47:17;19.02;;;4.18;;
26042;SDS011;13818;52.156;5.382;2023-02-04T07:49:45;15.75;;;3.80;;
26042;SDS011;13818;52.156;5.382;2023-02-04T07:52:11;22.02;;;4.43;;
26042;SDS011;13818;52.156;5.382;2023-02-04T07:54:37;30.38;;;4.82;;
26042;SDS011;13818;52.156;5.382;2023-02-04T07:57:04;19.33;;;3.90;;
26042;SDS011;13818;52.156;5.382;2023-02-04T07:59:30;21.38;;;4.60;;
26042;SDS011;13818;52.156;5.382;2023-02-04T08:01:57;29.23;;;4.65;;
26042;SDS011;13818;52.156;5.382;2023-02-04T08:04:23;27.98;;;5.10;;
26042;SDS011;13818;52.156;5.382;2023-02-04T08:06:51;18.80;;;4.65;;
26042;SDS011;13818;52.156;5.382;2023-02-04T08:09:18;22.52;;;4.32;;
26042;SDS011;13818;52.156;5.382;2023-02-04T08:11:44;25.45;;;5.10;;
26042;SDS011;13818;52.156;5.382;2023-02-04T08:14:11;28.70;;;5.18;;
26042;SDS011;13818;52.156;5.382;2023-02-04T08:16:37;26.88;;;4.68;;
26042;SDS011;13818;52.156;5.382;2023-02-04T08:19:04;20.38;;;4.50;;
26042;SDS011;13818;52.156;5.382;2023-02-04T08:21:30;19.42;;;4.57;;
26042;SDS011;13818;52.156;5.382;2023-02-04T08:23:58;26.75;;;6.25;;
26042;SDS011;13818;52.156;5.382;2023-02-04T08:26:24;25.42;;;5.07;;
26042;SDS011;13818;52.156;5.382;2023-02-04T08:28:52;25.67;;;4.38;;
26042;SDS011;13818;52.156;5.382;2023-02-04T08:31:18;18.17;;;4.82;;
26042;SDS011;13818;52.156;5.382;2023-02-04T08:33:45;20.75;;;5.25;;
26042;SDS011;13818;52.156;5.382;2023-02-04T08:36:11;25.88;;;5.30;;
26042;SDS011;13818;52.156;5.382;2023-02-04T08:38:39;26.65;;;4.63;;
26042;SDS011;13818;52.156;5.382;2023-02-04T08:41:06;23.90;;;4.30;;
26042;SDS011;13818;52.156;5.382;2023-02-04T08:43:33;25.77;;;4.70;;
26042;SDS011;13818;52.156;5.382;2023-02-04T08:46:00;26.75;;;5.50;;
26042;SDS011;13818;52.156;5.382;2023-02-04T08:48:27;17.55;;;4.55;;
26042;SDS011;13818;52.156;5.382;2023-02-04T08:50:53;25.25;;;5.82;;
26042;SDS011;13818;52.156;5.382;2023-02-04T08:53:20;27.10;;;4.72;;
26042;SDS011;13818;52.156;5.382;2023-02-04T08:55:46;20.00;;;4.93;;
26042;SDS011;13818;52.156;5.382;2023-02-04T08:58:14;25.10;;;4.85;;
26042;SDS011;13818;52.156;5.382;2023-02-04T09:00:41;17.70;;;4.07;;
26042;SDS011;13818;52.156;5.382;2023-02-04T09:03:07;31.45;;;4.65;;
26042;SDS011;13818;52.156;5.382;2023-02-04T09:05:34;28.20;;;5.88;;
26042;SDS011;13818;52.156;5.382;2023-02-04T09:08:00;29.77;;;6.28;;
26042;SDS011;13818;52.156;5.382;2023-02-04T09:10:26;19.48;;;4.63;;
26042;SDS011;13818;52.156;5.382;2023-02-04T09:12:53;27.60;;;5.15;;
26042;SDS011;13818;52.156;5.382;2023-02-04T09:15:21;24.45;;;5.03;;
26042;SDS011;13818;52.156;5.382;2023-02-04T09:17:49;27.63;;;5.07;;
26042;SDS011;13818;52.156;5.382;2023-02-04T09:20:18;19.73;;;5.97;;
26042;SDS011;13818;52.156;5.382;2023-02-04T09:22:44;24.60;;;5.63;;
26042;SDS011;13818;52.156;5.382;2023-02-04T09:25:12;14.80;;;4.80;;
26042;SDS011;13818;52.156;5.382;2023-02-04T09:27:38;21.33;;;4.55;;
26042;SDS011;13818;52.156;5.382;2023-02-04T09:30:05;21.92;;;4.47;;
26042;SDS011;13818;52.156;5.382;2023-02-04T09:32:33;23.52;;;5.22;;
26042;SDS011;13818;52.156;5.382;2023-02-04T09:35:00;23.20;;;4.43;;
26042;SDS011;13818;52.156;5.382;2023-02-04T09:37:26;21.88;;;4.47;;
26042;SDS011;13818;52.156;5.382;2023-02-04T09:39:53;25.67;;;4.90;;
26042;SDS011;13818;52.156;5.382;2023-02-04T09:42:19;26.23;;;4.43;;
26042;SDS011;13818;52.156;5.382;2023-02-04T09:44:50;23.65;;;3.95;;
26042;SDS011;13818;52.156;5.382;2023-02-04T09:47:17;26.73;;;5.32;;
26042;SDS011;13818;52.156;5.382;2023-02-04T09:49:49;24.92;;;4.75;;
26042;SDS011;13818;52.156;5.382;2023-02-04T09:52:16;15.88;;;3.65;;
26042;SDS011;13818;52.156;5.382;2023-02-04T09:54:44;18.67;;;3.72;;
26042;SDS011;13818;52.156;5.382;2023-02-04T09:57:12;20.35;;;4.05;;
26042;SDS011;13818;52.156;5.382;2023-02-04T09:59:41;26.25;;;3.95;;
26042;SDS011;13818;52.156;5.382;2023-02-04T10:02:10;21.35;;;3.25;;
26042;SDS011;13818;52.156;5.382;2023-02-04T10:04:45;20.33;;;3.70;;
26042;SDS011;13818;52.156;5.382;2023-02-04T10:07:13;31.88;;;4.78;;
26042;SDS011;13818;52.156;5.382;2023-02-04T10:09:46;20.05;;;4.50;;
26042;SDS011;13818;52.156;5.382;2023-02-04T10:12:13;33.50;;;5.65;;
26042;SDS011;13818;52.156;5.382;2023-02-04T10:14:39;34.03;;;3.88;;
26042;SDS011;13818;52.156;5.382;2023-02-04T10:17:06;23.38;;;3.80;;
26042;SDS011;13818;52.156;5.382;2023-02-04T10:19:34;29.83;;;4.13;;
26042;SDS011;13818;52.156;5.382;2023-02-04T10:22:02;22.80;;;2.85;;
26042;SDS011;13818;52.156;5.382;2023-02-04T10:24:30;21.50;;;4.55;;
26042;SDS011;13818;52.156;5.382;2023-02-04T10:29:34;25.88;;;4.68;;
26042;SDS011;13818;52.156;5.382;2023-02-04T10:32:01;27.60;;;3.25;;
26042;SDS011;13818;52.156;5.382;2023-02-04T10:34:31;22.70;;;3.58;;
26042;SDS011;13818;52.156;5.382;2023-02-04T10:36:59;27.50;;;4.60;;
26042;SDS011;13818;52.156;5.382;2023-02-04T10:39:40;14.13;;;2.47;;
26042;SDS011;13818;52.156;5.382;2023-02-04T10:42:17;25.42;;;2.85;;
26042;SDS011;13818;52.156;5.382;2023-02-04T10:44:46;33.92;;;3.00;;
26042;SDS011;13818;52.156;5.382;2023-02-04T10:47:14;21.40;;;3.17;;
26042;SDS011;13818;52.156;5.382;2023-02-04T10:49:49;20.98;;;2.60;;
26042;SDS011;13818;52.156;5.382;2023-02-04T10:52:18;30.42;;;3.83;;
26042;SDS011;13818;52.156;5.382;2023-02-04T10:54:48;31.88;;;3.58;;
26042;SDS011;13818;52.156;5.382;2023-02-04T10:57:16;35.97;;;4.75;;
26042;SDS011;13818;52.156;5.382;2023-02-04T10:59:45;21.83;;;3.55;;
26042;SDS011;13818;52.156;5.382;2023-02-04T11:02:39;21.42;;;3.47;;
26042;SDS011;13818;52.156;5.382;2023-02-04T11:05:10;18.67;;;2.42;;
26042;SDS011;13818;52.156;5.382;2023-02-04T11:07:40;26.90;;;3.40;;
26042;SDS011;13818;52.156;5.382;2023-02-04T11:10:15;19.77;;;2.72;;
26042;SDS011;13818;52.156;5.382;2023-02-04T11:12:44;21.90;;;2.88;;
26042;SDS011;13818;52.156;5.382;2023-02-04T11:15:37;27.70;;;3.28;;
26042;SDS011;13818;52.156;5.382;2023-02-04T11:18:06;19.42;;;2.85;;
26042;SDS011;13818;52.156;5.382;2023-02-04T11:20:33;15.13;;;2.67;;
26042;SDS011;13818;52.156;5.382;2023-02-04T11:23:14;14.20;;;2.30;;
26042;SDS011;13818;52.156;5.382;2023-02-04T11:25:43;17.02;;;2.58;;
26042;SDS011;13818;52.156;5.382;2023-02-04T11:28:13;23.00;;;3.30;;
26042;SDS011;13818;52.156;5.382;2023-02-04T11:30:40;22.33;;;2.72;;
26042;SDS011;13818;52.156;5.382;2023-02-04T11:33:19;21.23;;;2.95;;
26042;SDS011;13818;52.156;5.382;2023-02-04T11:35:56;21.63;;;3.72;;
26042;SDS011;13818;52.156;5.382;2023-02-04T11:38:26;26.20;;;3.47;;
26042;SDS011;13818;52.156;5.382;2023-02-04T11:40:57;21.38;;;2.03;;
26042;SDS011;13818;52.156;5.382;2023-02-04T11:43:24;14.03;;;1.80;;
26042;SDS011;13818;52.156;5.382;2023-02-04T11:46:01;20.52;;;3.03;;
26042;SDS011;13818;52.156;5.382;2023-02-04T11:48:31;17.77;;;2.13;;
26042;SDS011;13818;52.156;5.382;2023-02-04T11:50:59;23.03;;;2.87;;
26042;SDS011;13818;52.156;5.382;2023-02-04T11:53:27;17.00;;;1.97;;
26042;SDS011;13818;52.156;5.382;2023-02-04T11:55:57;18.75;;;2.17;;
26042;SDS011;13818;52.156;5.382;2023-02-04T11:58:24;13.82;;;2.38;;
26042;SDS011;13818;52.156;5.382;2023-02-04T12:00:55;22.73;;;2.40;;
26042;SDS011;13818;52.156;5.382;2023-02-04T12:03:23;15.45;;;1.95;;
26042;SDS011;13818;52.156;5.382;2023-02-04T12:05:52;18.35;;;2.13;;
26042;SDS011;13818;52.156;5.382;2023-02-04T12:08:30;22.17;;;2.70;;
26042;SDS011;13818;52.156;5.382;2023-02-04T12:11:01;15.52;;;2.67;;
26042;SDS011;13818;52.156;5.382;2023-02-04T12:13:30;23.65;;;2.40;;
26042;SDS011;13818;52.156;5.382;2023-02-04T12:15:57;17.25;;;2.58;;
26042;SDS011;13818;52.156;5.382;2023-02-04T12:18:25;17.63;;;2.03;;
26042;SDS011;13818;52.156;5.382;2023-02-04T12:20:53;19.75;;;2.15;;
26042;SDS011;13818;52.156;5.382;2023-02-04T12:23:20;14.07;;;2.08;;
26042;SDS011;13818;52.156;5.382;2023-02-04T12:25:46;18.75;;;3.10;;
26042;SDS011;13818;52.156;5.382;2023-02-04T12:28:14;21.20;;;3.13;;
26042;SDS011;13818;52.156;5.382;2023-02-04T12:30:41;22.75;;;3.17;;
26042;SDS011;13818;52.156;5.382;2023-02-04T12:33:08;20.73;;;2.97;;
26042;SDS011;13818;52.156;5.382;2023-02-04T12:35:34;15.63;;;3.00;;
26042;SDS011;13818;52.156;5.382;2023-02-04T12:38:01;16.92;;;2.53;;
26042;SDS011;13818;52.156;5.382;2023-02-04T12:40:28;18.70;;;3.40;;
26042;SDS011;13818;52.156;5.382;2023-02-04T12:42:54;24.45;;;3.50;;
26042;SDS011;13818;52.156;5.382;2023-02-04T12:45:22;14.38;;;2.42;;
26042;SDS011;13818;52.156;5.382;2023-02-04T12:47:49;17.95;;;2.40;;
26042;SDS011;13818;52.156;5.382;2023-02-04T12:50:16;16.20;;;2.55;;
26042;SDS011;13818;52.156;5.382;2023-02-04T12:52:47;23.40;;;2.40;;
26042;SDS011;13818;52.156;5.382;2023-02-04T12:55:14;21.45;;;2.50;;
26042;SDS011;13818;52.156;5.382;2023-02-04T12:57:41;17.13;;;2.58;;
26042;SDS011;13818;52.156;5.382;2023-02-04T13:00:08;23.15;;;3.20;;
26042;SDS011;13818;52.156;5.382;2023-02-04T13:02:36;15.73;;;2.90;;
26042;SDS011;13818;52.156;5.382;2023-02-04T13:05:03;19.58;;;2.20;;
26042;SDS011;13818;52.156;5.382;2023-02-04T13:07:30;28.20;;;3.03;;
26042;SDS011;13818;52.156;5.382;2023-02-04T13:09:57;19.73;;;1.77;;
26042;SDS011;13818;52.156;5.382;2023-02-04T13:12:23;16.77;;;3.20;;
26042;SDS011;13818;52.156;5.382;2023-02-04T13:14:50;19.50;;;2.70;;
26042;SDS011;13818;52.156;5.382;2023-02-04T13:17:16;21.42;;;3.30;;
26042;SDS011;13818;52.156;5.382;2023-02-04T13:19:44;15.95;;;2.17;;
26042;SDS011;13818;52.156;5.382;2023-02-04T13:22:11;24.33;;;2.63;;
26042;SDS011;13818;52.156;5.382;2023-02-04T13:24:37;20.88;;;2.60;;
26042;SDS011;13818;52.156;5.382;2023-02-04T13:27:04;23.35;;;3.08;;
26042;SDS011;13818;52.156;5.382;2023-02-04T13:29:30;14.27;;;2.10;;
26042;SDS011;13818;52.156;5.382;2023-02-04T13:31:57;21.27;;;2.83;;
26042;SDS011;13818;52.156;5.382;2023-02-04T13:34:23;21.83;;;3.25;;
26042;SDS011;13818;52.156;5.382;2023-02-04T13:36:51;15.43;;;2.47;;
26042;SDS011;13818;52.156;5.382;2023-02-04T13:39:17;18.77;;;2.30;;
26042;SDS011;13818;52.156;5.382;2023-02-04T13:41:44;14.38;;;1.95;;
26042;SDS011;13818;52.156;5.382;2023-02-04T13:44:11;15.35;;;2.13;;
26042;SDS011;13818;52.156;5.382;2023-02-04T13:46:38;18.67;;;2.40;;
26042;SDS011;13818;52.156;5.382;2023-02-04T13:49:04;32.60;;;5.40;;
26042;SDS011;13818;52.156;5.382;2023-02-04T13:51:31;11.65;;;2.00;;
26042;SDS011;13818;52.156;5.382;2023-02-04T13:53:59;20.70;;;3.40;;
26042;SDS011;13818;52.156;5.382;2023-02-04T13:56:25;22.58;;;3.40;;
26042;SDS011;13818;52.156;5.382;2023-02-04T13:58:51;18.65;;;2.72;;
26042;SDS011;13818;52.156;5.382;2023-02-04T14:01:18;22.73;;;2.83;;
26042;SDS011;13818;52.156;5.382;2023-02-04T14:03:45;21.17;;;2.63;;
26042;SDS011;13818;52.156;5.382;2023-02-04T14:06:12;24.63;;;2.97;;
26042;SDS011;13818;52.156;5.382;2023-02-04T14:08:39;10.60;;;1.92;;
26042;SDS011;13818;52.156;5.382;2023-02-04T14:11:07;14.32;;;2.55;;
26042;SDS011;13818;52.156;5.382;2023-02-04T14:13:33;20.88;;;3.00;;
26042;SDS011;13818;52.156;5.382;2023-02-04T14:16:00;20.75;;;3.03;;
26042;SDS011;13818;52.156;5.382;2023-02-04T14:18:26;16.15;;;3.22;;
26042;SDS011;13818;52.156;5.382;2023-02-04T14:20:53;12.63;;;2.58;;
26042;SDS011;13818;52.156;5.382;2023-02-04T14:23:19;15.88;;;2.88;;
26042;SDS011;13818;52.156;5.382;2023-02-04T14:25:45;22.42;;;2.70;;
26042;SDS011;13818;52.156;5.382;2023-02-04T14:28:13;27.80;;;2.95;;
26042;SDS011;13818;52.156;5.382;2023-02-04T14:30:40;12.55;;;2.38;;
26042;SDS011;13818;52.156;5.382;2023-02-04T14:33:06;17.77;;;2.38;;
26042;SDS011;13818;52.156;5.382;2023-02-04T14:35:33;21.52;;;3.40;;
26042;SDS011;13818;52.156;5.382;2023-02-04T14:38:01;16.08;;;2.50;;
26042;SDS011;13818;52.156;5.382;2023-02-04T14:40:28;22.23;;;3.05;;